createdAt,value
2023-05-14T00:02:03.662Z,74.04
2023-05-14T00:04:31.409Z,74.35
2023-05-14T00:06:59.038Z,74.14
2023-05-14T00:09:26.578Z,74.12
2023-05-14T00:11:54.115Z,74.06
2023-05-14T00:14:22.040Z,74.26
2023-05-14T00:16:49.983Z,74.37
2023-05-14T00:19:18.014Z,74.18
2023-05-14T00:21:45.673Z,73.94
2023-05-14T00:24:13.235Z,74.54
2023-05-14T00:26:40.843Z,74.24
2023-05-14T00:29:08.366Z,74.46
2023-05-14T00:31:35.996Z,74.29
2023-05-14T00:34:03.982Z,74.86
2023-05-14T00:36:31.744Z,74.81
2023-05-14T00:38:59.275Z,74.72
2023-05-14T00:41:26.946Z,74.90
2023-05-14T00:43:54.939Z,74.74
2023-05-14T00:46:22.634Z,75.01
2023-05-14T00:48:51.847Z,74.99
2023-05-14T00:51:20.016Z,74.96
2023-05-14T00:53:47.902Z,74.98
2023-05-14T00:56:16.690Z,75.18
2023-05-14T00:58:44.268Z,75.04
2023-05-14T01:01:15.348Z,75.40
2023-05-14T01:03:43.589Z,75.31
2023-05-14T01:06:14.295Z,75.63
2023-05-14T01:08:59.652Z,75.24
2023-05-14T01:11:36.743Z,75.45
2023-05-14T01:14:34.640Z,75.30
2023-05-14T01:17:05.031Z,75.16
2023-05-14T01:19:42.991Z,75.22
2023-05-14T01:22:11.426Z,75.34
2023-05-14T01:24:39.430Z,75.46
2023-05-14T01:27:23.483Z,75.64
2023-05-14T01:30:03.178Z,75.27
2023-05-14T01:32:33.292Z,75.37
2023-05-14T01:35:01.852Z,74.98
2023-05-14T01:37:31.244Z,75.18
2023-05-14T01:40:00.399Z,74.97
2023-05-14T01:42:29.203Z,75.30
2023-05-14T01:44:56.889Z,75.30
2023-05-14T01:47:24.603Z,75.74
2023-05-14T01:49:52.174Z,75.59
2023-05-14T01:52:21.324Z,75.87
2023-05-14T01:54:49.175Z,75.70
2023-05-14T01:57:16.841Z,75.73
2023-05-14T01:59:44.485Z,75.78
2023-05-14T02:02:12.046Z,75.79
2023-05-14T02:04:39.782Z,75.79
2023-05-14T02:07:07.453Z,76.22
2023-05-14T02:09:35.103Z,76.32
2023-05-14T02:12:02.660Z,76.21
2023-05-14T02:14:30.379Z,76.41
2023-05-14T02:16:58.114Z,76.25
2023-05-14T02:19:25.767Z,76.52
2023-05-14T02:21:53.333Z,76.16
2023-05-14T02:24:20.968Z,76.26
2023-05-14T02:26:48.568Z,76.42
2023-05-14T02:29:16.107Z,76.08
2023-05-14T02:31:43.845Z,76.45
2023-05-14T02:34:11.706Z,76.39
2023-05-14T02:36:39.221Z,76.78
2023-05-14T02:39:06.794Z,76.76
2023-05-14T02:41:34.414Z,76.73
2023-05-14T02:44:02.131Z,77.18
2023-05-14T02:46:31.372Z,77.06
2023-05-14T02:48:59.245Z,77.37
2023-05-14T02:51:27.343Z,77.36
2023-05-14T02:53:54.906Z,76.91
2023-05-14T02:56:22.679Z,77.27
2023-05-14T02:58:50.340Z,77.15
2023-05-14T03:01:19.196Z,77.06
2023-05-14T03:03:47.423Z,77.16
2023-05-14T03:06:15.437Z,77.02
2023-05-14T03:08:43.049Z,77.91
2023-05-14T03:11:10.677Z,77.03
2023-05-14T03:13:40.788Z,77.02
2023-05-14T03:16:08.471Z,78.17
2023-05-14T03:18:37.267Z,77.44
2023-05-14T03:21:05.002Z,77.75
2023-05-14T03:27:33.710Z,77.30
2023-05-14T03:34:14.521Z,77.94
2023-05-14T03:36:42.168Z,77.69
2023-05-14T03:39:09.821Z,78.04
2023-05-14T03:44:37.030Z,77.55
2023-05-14T03:50:53.284Z,78.13
2023-05-14T03:53:20.997Z,77.70
2023-05-14T03:55:48.580Z,78.10
2023-05-14T03:58:17.635Z,78.40
2023-05-14T04:00:45.197Z,78.70
2023-05-14T04:03:13.110Z,78.21
2023-05-14T04:05:41.166Z,78.39
2023-05-14T04:08:08.968Z,78.38
2023-05-14T04:10:36.574Z,77.84
2023-05-14T04:13:04.227Z,78.50
2023-05-14T04:15:35.973Z,77.66
2023-05-14T04:18:03.757Z,78.02
2023-05-14T04:20:31.611Z,77.79
2023-05-14T04:22:59.204Z,78.16
2023-05-14T04:25:26.783Z,78.50
2023-05-14T04:27:54.427Z,77.93
2023-05-14T04:30:22.358Z,78.29
2023-05-14T04:32:50.210Z,78.23
2023-05-14T04:35:18.101Z,78.01
2023-05-14T04:37:48.038Z,78.39
2023-05-14T04:40:19.096Z,78.28
2023-05-14T04:42:46.624Z,77.91
2023-05-14T04:45:14.671Z,78.25
2023-05-14T04:47:42.572Z,78.58
2023-05-14T04:50:10.187Z,78.15
2023-05-14T04:52:38.509Z,78.54
2023-05-14T04:55:06.736Z,78.22
2023-05-14T04:57:34.461Z,78.58
2023-05-14T05:00:02.326Z,78.16
2023-05-14T05:02:29.964Z,78.23
2023-05-14T05:04:57.480Z,78.21
2023-05-14T05:07:25.058Z,77.91
2023-05-14T05:09:52.728Z,77.77
2023-05-14T05:12:21.511Z,77.61
2023-05-14T05:14:48.994Z,77.42
2023-05-14T05:17:16.632Z,77.55
2023-05-14T05:19:44.763Z,77.70
2023-05-14T05:22:12.506Z,77.06
2023-05-14T05:24:40.065Z,77.11
2023-05-14T05:27:07.881Z,76.68
2023-05-14T05:29:37.020Z,76.26
2023-05-14T05:32:05.008Z,76.22
2023-05-14T05:34:32.750Z,75.89
2023-05-14T05:37:00.535Z,76.02
2023-05-14T05:39:28.211Z,75.79
2023-05-14T05:41:55.760Z,75.62
2023-05-14T05:44:23.275Z,75.53
2023-05-14T05:46:51.242Z,75.37
2023-05-14T05:49:18.829Z,75.01
2023-05-14T05:51:46.378Z,74.99
2023-05-14T05:54:13.957Z,74.95
2023-05-14T05:56:41.526Z,74.96
2023-05-14T05:59:09.318Z,74.71
2023-05-14T06:01:37.437Z,74.94
2023-05-14T06:04:06.400Z,75.09
2023-05-14T06:06:33.963Z,74.94
2023-05-14T06:09:02.173Z,74.92
2023-05-14T06:11:29.746Z,74.77
2023-05-14T06:13:57.280Z,74.63
2023-05-14T06:16:25.500Z,74.48
2023-05-14T06:18:54.525Z,74.51
2023-05-14T06:21:22.195Z,74.29
2023-05-14T06:23:49.858Z,74.48
2023-05-14T06:26:17.378Z,74.09
2023-05-14T06:28:44.953Z,74.31
2023-05-14T06:31:12.633Z,74.41
2023-05-14T06:33:40.185Z,74.52
2023-05-14T06:36:08.352Z,74.44
2023-05-14T06:38:36.015Z,74.24
2023-05-14T06:41:03.642Z,73.74
2023-05-14T06:43:31.163Z,74.09
2023-05-14T06:45:58.739Z,74.01
2023-05-14T06:48:27.965Z,73.90
2023-05-14T06:50:55.887Z,73.90
2023-05-14T06:53:23.488Z,73.64
2023-05-14T06:55:51.046Z,73.17
2023-05-14T06:58:18.616Z,73.29
2023-05-14T07:00:46.255Z,72.79
2023-05-14T07:03:13.785Z,72.56
2023-05-14T07:05:41.421Z,72.31
2023-05-14T07:08:08.972Z,72.21
2023-05-14T07:10:36.594Z,71.72
2023-05-14T07:13:04.112Z,71.74
2023-05-14T07:15:32.126Z,71.46
2023-05-14T07:17:59.681Z,71.18
2023-05-14T07:20:27.445Z,70.78
2023-05-14T07:22:55.290Z,70.32
2023-05-14T07:25:22.913Z,69.90
2023-05-14T07:27:50.610Z,69.78
2023-05-14T07:30:18.221Z,69.30
2023-05-14T07:32:46.094Z,68.45
2023-05-14T07:35:13.799Z,68.08
2023-05-14T07:37:42.970Z,68.31
2023-05-14T07:40:10.810Z,67.05
2023-05-14T07:42:38.373Z,66.89
2023-05-14T07:45:06.597Z,66.36
2023-05-14T07:47:36.282Z,65.69
2023-05-14T07:50:04.186Z,65.64
2023-05-14T07:52:33.392Z,65.22
2023-05-14T07:55:01.585Z,64.63
2023-05-14T07:57:29.173Z,64.00
2023-05-14T07:59:57.068Z,63.60
2023-05-14T08:02:24.691Z,63.60
2023-05-14T08:04:52.463Z,63.62
2023-05-14T08:07:20.049Z,63.52
2023-05-14T08:09:47.685Z,63.86
2023-05-14T08:12:16.100Z,64.82
2023-05-14T08:14:43.727Z,64.89
2023-05-14T08:17:11.484Z,65.02
2023-05-14T08:19:39.251Z,65.54
2023-05-14T08:22:07.402Z,65.08
2023-05-14T08:24:35.055Z,65.77
2023-05-14T08:27:02.672Z,65.71
2023-05-14T08:29:30.765Z,66.11
2023-05-14T08:32:00.294Z,66.43
2023-05-14T08:34:29.921Z,66.42
2023-05-14T08:36:57.492Z,66.53
2023-05-14T08:39:25.118Z,66.52
2023-05-14T08:41:52.850Z,66.54
2023-05-14T08:44:28.226Z,66.40
2023-05-14T08:46:56.493Z,66.56
2023-05-14T08:49:47.380Z,65.93
2023-05-14T08:52:17.842Z,66.26
2023-05-14T08:54:48.302Z,66.06
2023-05-14T08:57:18.697Z,66.77
2023-05-14T08:59:46.413Z,66.93
2023-05-14T09:02:15.303Z,67.45
2023-05-14T09:04:43.462Z,67.72
2023-05-14T09:07:11.652Z,68.37
2023-05-14T09:09:40.137Z,68.69
2023-05-14T09:12:08.212Z,69.51
2023-05-14T09:14:35.990Z,69.53
2023-05-14T09:17:03.790Z,69.16
2023-05-14T09:19:31.705Z,70.08
2023-05-14T09:21:59.337Z,69.57
2023-05-14T09:24:30.903Z,69.71
2023-05-14T09:26:59.204Z,69.59
2023-05-14T09:29:29.367Z,69.80
2023-05-14T09:31:58.607Z,70.24
2023-05-14T09:34:31.177Z,69.74
2023-05-14T09:37:04.069Z,69.09
2023-05-14T09:39:33.934Z,69.18
2023-05-14T09:45:12.876Z,68.59
2023-05-14T09:47:41.502Z,68.85
2023-05-14T09:50:09.507Z,68.29
2023-05-14T09:52:37.437Z,68.09
2023-05-14T09:55:05.770Z,67.96
2023-05-14T09:57:34.668Z,68.58
2023-05-14T10:00:02.475Z,68.34
2023-05-14T10:02:38.402Z,68.26
2023-05-14T10:05:08.025Z,68.47
2023-05-14T10:07:41.743Z,69.06
2023-05-14T10:10:15.865Z,68.72
2023-05-14T10:12:51.734Z,69.26
2023-05-14T10:15:58.842Z,69.21
2023-05-14T10:18:31.192Z,69.44
2023-05-14T10:21:06.421Z,69.48
2023-05-14T10:23:37.877Z,69.39
2023-05-14T10:26:06.609Z,69.10
2023-05-14T10:28:34.756Z,69.52
2023-05-14T10:31:02.557Z,69.66
2023-05-14T10:33:30.563Z,69.75
2023-05-14T10:36:01.988Z,70.79
2023-05-14T10:38:32.798Z,70.44
2023-05-14T10:41:07.548Z,70.74
2023-05-14T10:43:40.700Z,70.27
2023-05-14T10:46:09.949Z,70.16
2023-05-14T10:48:39.234Z,70.19
2023-05-14T10:51:09.358Z,70.89
2023-05-14T10:54:08.444Z,71.15
2023-05-14T10:56:37.364Z,70.88
2023-05-14T10:59:06.862Z,71.03
2023-05-14T11:01:35.131Z,71.29
2023-05-14T11:04:03.758Z,71.30
2023-05-14T11:06:31.635Z,71.55
2023-05-14T11:09:01.724Z,71.59
2023-05-14T11:11:29.599Z,71.26
2023-05-14T11:13:57.389Z,71.31
2023-05-14T11:16:30.848Z,71.48
2023-05-14T11:19:03.643Z,70.96
2023-05-14T11:21:32.953Z,71.14
2023-05-14T11:24:01.480Z,71.58
2023-05-14T11:26:29.162Z,71.37
2023-05-14T11:28:56.976Z,71.62
2023-05-14T11:31:25.713Z,71.87
2023-05-14T11:33:53.695Z,72.24
2023-05-14T11:36:22.287Z,73.23
2023-05-14T11:38:51.556Z,74.30
2023-05-14T11:41:21.642Z,74.58
2023-05-14T11:43:49.495Z,74.95
2023-05-14T11:46:21.932Z,75.53
2023-05-14T11:48:49.748Z,75.83
2023-05-14T11:51:17.302Z,75.62
2023-05-14T11:53:45.633Z,75.53
2023-05-14T11:56:13.350Z,75.25
2023-05-14T11:58:41.050Z,75.15
2023-05-14T12:01:13.592Z,74.27
2023-05-14T12:03:41.579Z,73.61
2023-05-14T12:06:09.190Z,72.33
2023-05-14T12:08:37.793Z,71.38
2023-05-14T12:11:05.508Z,71.02
2023-05-14T12:13:33.525Z,69.86
2023-05-14T12:16:05.592Z,68.56
2023-05-14T12:18:33.908Z,67.69
2023-05-14T12:21:07.970Z,67.31
2023-05-14T12:23:35.879Z,66.62
2023-05-14T12:26:08.379Z,66.10
2023-05-14T12:28:43.489Z,64.80
2023-05-14T12:31:11.490Z,63.48
2023-05-14T12:33:39.154Z,61.71
2023-05-14T12:39:28.068Z,57.65
2023-05-14T12:41:55.955Z,56.56
2023-05-14T12:44:23.632Z,55.14
2023-05-14T12:53:42.852Z,52.63
2023-05-14T12:59:25.821Z,50.20
2023-05-14T13:01:53.410Z,48.88
2023-05-14T13:04:27.418Z,47.60
2023-05-14T13:06:55.174Z,46.94
2023-05-14T13:09:22.753Z,45.86
2023-05-14T13:11:50.400Z,45.55
2023-05-14T13:14:26.872Z,45.20
2023-05-14T13:16:54.648Z,45.51
2023-05-14T13:19:27.773Z,44.15
2023-05-14T13:21:55.459Z,44.61
2023-05-14T13:24:25.027Z,44.61
2023-05-14T13:26:55.956Z,44.73
2023-05-14T13:29:23.923Z,44.96
2023-05-14T13:31:51.424Z,45.82
2023-05-14T13:34:19.128Z,46.02
2023-05-14T13:36:47.315Z,46.49
2023-05-14T13:39:14.850Z,46.48
2023-05-14T13:41:42.716Z,46.56
2023-05-14T13:44:10.398Z,46.14
2023-05-14T13:46:38.150Z,46.02
2023-05-14T13:49:06.607Z,45.88
2023-05-14T13:51:34.136Z,45.94
2023-05-14T13:54:01.724Z,45.90
2023-05-14T13:56:29.408Z,45.69
2023-05-14T13:58:57.007Z,45.50
2023-05-14T14:01:24.622Z,45.44
2023-05-14T14:03:52.265Z,45.41
2023-05-14T14:06:19.815Z,45.02
2023-05-14T14:08:47.453Z,44.56
2023-05-14T14:11:15.101Z,44.46
2023-05-14T14:13:43.769Z,44.33
2023-05-14T14:16:12.683Z,44.50
2023-05-14T14:18:40.424Z,44.77
2023-05-14T14:21:08.032Z,44.42
2023-05-14T14:23:35.588Z,44.64
2023-05-14T14:26:03.860Z,44.32
2023-05-14T14:28:31.594Z,43.92
2023-05-14T14:30:59.294Z,43.54
2023-05-14T14:33:27.997Z,43.89
2023-05-14T14:35:56.202Z,43.88
2023-05-14T14:38:24.994Z,43.58
2023-05-14T14:40:52.600Z,43.58
2023-05-14T14:43:20.552Z,43.62
2023-05-14T14:45:49.047Z,43.46
2023-05-14T14:48:25.261Z,42.86
2023-05-14T14:50:53.781Z,42.56
2023-05-14T14:53:25.209Z,42.42
2023-05-14T14:55:53.392Z,42.16
2023-05-14T14:58:21.287Z,41.86
2023-05-14T15:00:51.310Z,41.58
2023-05-14T15:03:19.416Z,41.70
2023-05-14T15:05:47.716Z,41.54
2023-05-14T15:08:15.788Z,41.02
2023-05-14T15:10:44.949Z,41.33
2023-05-14T15:13:13.049Z,41.03
2023-05-14T15:15:40.786Z,41.02
2023-05-14T15:18:08.465Z,41.43
2023-05-14T15:20:36.324Z,41.55
2023-05-14T15:23:03.990Z,41.73
2023-05-14T15:25:31.655Z,41.64
2023-05-14T15:27:59.355Z,41.47
2023-05-14T15:30:26.965Z,41.88
2023-05-14T15:32:55.493Z,42.42
2023-05-14T15:35:23.326Z,42.20
2023-05-14T15:37:51.116Z,41.99
2023-05-14T15:40:19.113Z,42.00
2023-05-14T15:42:47.073Z,42.08
2023-05-14T15:45:14.977Z,41.83
2023-05-14T15:47:42.584Z,41.79
2023-05-14T15:50:10.263Z,41.91
2023-05-14T15:52:39.477Z,41.75
2023-05-14T15:55:07.640Z,42.30
2023-05-14T15:57:35.420Z,41.56
2023-05-14T16:00:10.414Z,40.88
2023-05-14T16:02:39.413Z,40.45
2023-05-14T16:05:08.386Z,40.10
2023-05-14T16:07:36.630Z,39.85
2023-05-14T16:10:05.032Z,39.63
2023-05-14T16:12:32.710Z,39.50
2023-05-14T16:15:00.545Z,39.10
2023-05-14T16:17:28.659Z,38.60
2023-05-14T16:19:56.635Z,39.09
2023-05-14T16:22:24.304Z,39.26
2023-05-14T16:24:51.940Z,39.38
2023-05-14T16:27:19.591Z,39.65
2023-05-14T16:29:47.228Z,39.62
2023-05-14T16:32:14.886Z,39.16
2023-05-14T16:34:47.493Z,38.97
2023-05-14T16:37:20.038Z,39.03
2023-05-14T16:39:48.192Z,38.68
2023-05-14T16:42:15.748Z,38.63
2023-05-14T16:44:43.361Z,38.38
2023-05-14T16:47:11.209Z,38.58
2023-05-14T16:49:38.906Z,38.89
2023-05-14T16:52:07.005Z,38.74
2023-05-14T16:54:35.138Z,38.74
2023-05-14T16:57:02.801Z,39.04
2023-05-14T16:59:30.420Z,39.35
2023-05-14T17:01:58.037Z,39.18
2023-05-14T17:04:26.682Z,39.06
2023-05-14T17:06:54.797Z,38.77
2023-05-14T17:09:22.630Z,38.61
2023-05-14T17:11:50.210Z,38.37
2023-05-14T17:14:17.761Z,38.33
2023-05-14T17:16:45.418Z,38.40
2023-05-14T17:19:13.083Z,38.04
2023-05-14T17:21:40.698Z,37.92
2023-05-14T17:24:08.467Z,38.18
2023-05-14T17:26:37.704Z,38.68
2023-05-14T17:29:05.321Z,39.14
2023-05-14T17:31:32.917Z,39.05
2023-05-14T17:34:00.843Z,39.36
2023-05-14T17:36:28.697Z,40.02
2023-05-14T17:38:56.292Z,40.09
2023-05-14T17:41:24.019Z,40.64
2023-05-14T17:43:52.582Z,40.59
2023-05-14T17:46:21.376Z,40.94
2023-05-14T17:48:48.926Z,40.84
2023-05-14T17:51:16.557Z,40.25
2023-05-14T17:53:44.233Z,40.06
2023-05-14T17:56:12.186Z,40.30
2023-05-14T17:58:39.856Z,40.63
2023-05-14T18:01:07.751Z,40.78
2023-05-14T18:03:35.644Z,41.88
2023-05-14T18:06:03.672Z,42.43
2023-05-14T18:08:31.315Z,42.46
2023-05-14T18:11:00.797Z,42.30
2023-05-14T18:13:28.357Z,41.86
2023-05-14T18:15:56.671Z,42.09
2023-05-14T18:18:24.472Z,42.39
2023-05-14T18:20:53.047Z,42.16
2023-05-14T18:23:20.646Z,42.41
2023-05-14T18:25:48.757Z,42.34
2023-05-14T18:28:16.489Z,43.33
2023-05-14T18:30:45.552Z,43.70
2023-05-14T18:33:13.284Z,44.02
2023-05-14T18:35:43.623Z,44.30
2023-05-14T18:38:12.507Z,44.69
2023-05-14T18:40:40.018Z,44.88
2023-05-14T18:43:07.709Z,45.11
2023-05-14T18:45:35.376Z,45.30
2023-05-14T18:48:03.102Z,45.24
2023-05-14T18:50:30.814Z,45.10
2023-05-14T18:52:58.424Z,45.23
2023-05-14T18:55:26.426Z,45.75
2023-05-14T18:57:54.373Z,45.96
2023-05-14T19:00:21.993Z,46.07
2023-05-14T19:02:49.723Z,46.37
2023-05-14T19:05:17.384Z,46.16
2023-05-14T19:07:48.430Z,46.30
2023-05-14T19:10:15.978Z,46.90
2023-05-14T19:12:43.552Z,47.10
2023-05-14T19:15:11.721Z,47.02
2023-05-14T19:17:39.456Z,47.23
2023-05-14T19:20:08.118Z,47.57
2023-05-14T19:22:35.817Z,47.65
2023-05-14T19:25:04.386Z,47.80
2023-05-14T19:27:32.958Z,48.38
2023-05-14T19:30:00.663Z,48.59
2023-05-14T19:32:28.255Z,49.15
2023-05-14T19:34:55.967Z,49.49
2023-05-14T19:37:24.082Z,50.14
2023-05-14T19:39:51.636Z,50.17
2023-05-14T19:42:19.314Z,50.64
2023-05-14T19:44:46.854Z,50.90
2023-05-14T19:47:14.860Z,51.13
2023-05-14T19:49:42.540Z,51.53
2023-05-14T19:52:13.406Z,51.92
2023-05-14T19:54:43.829Z,51.93
2023-05-14T19:57:11.759Z,52.37
2023-05-14T19:59:39.526Z,52.34
2023-05-14T20:02:18.265Z,52.43
2023-05-14T20:09:26.076Z,53.09
2023-05-14T20:11:56.583Z,53.53
2023-05-14T21:23:03.816Z,58.92
2023-05-14T21:26:14.750Z,59.37
2023-05-14T21:37:31.625Z,59.99
2023-05-14T21:40:00.505Z,60.67
2023-05-14T21:42:28.000Z,61.28
2023-05-14T21:44:55.570Z,60.72
2023-05-14T21:47:23.173Z,60.84
2023-05-14T21:49:50.829Z,60.86
2023-05-14T22:06:14.273Z,61.04
2023-05-14T22:08:44.600Z,61.67
2023-05-14T22:11:12.224Z,61.57
2023-05-14T22:13:41.175Z,61.61
2023-05-14T22:25:13.602Z,62.23
2023-05-14T22:27:41.304Z,62.58
2023-05-14T22:39:31.858Z,62.19
2023-05-14T22:42:02.194Z,62.15
2023-05-14T22:44:30.129Z,62.84
2023-05-14T22:46:58.001Z,63.07
2023-05-14T22:49:25.684Z,62.48
2023-05-14T22:51:54.341Z,63.31
2023-05-14T22:54:21.927Z,63.66
2023-05-14T22:56:49.617Z,63.55
2023-05-14T22:59:17.196Z,64.02
2023-05-14T23:01:44.974Z,63.55
2023-05-14T23:04:12.633Z,63.94
2023-05-14T23:06:40.318Z,63.76
2023-05-14T23:09:07.997Z,64.22
2023-05-14T23:11:35.498Z,64.65
2023-05-14T23:14:03.065Z,65.14
2023-05-14T23:16:30.755Z,65.08
2023-05-14T23:18:58.528Z,65.36
2023-05-14T23:21:26.277Z,65.29
2023-05-14T23:23:53.847Z,65.20
2023-05-14T23:26:21.798Z,65.85
2023-05-14T23:28:49.450Z,66.05
2023-05-14T23:31:17.607Z,65.78
2023-05-14T23:33:46.404Z,66.19
2023-05-14T23:36:14.007Z,66.12
2023-05-14T23:38:41.866Z,66.58
2023-05-14T23:41:09.430Z,66.69
2023-05-14T23:43:37.003Z,66.66
2023-05-14T23:46:04.623Z,66.75
2023-05-14T23:48:32.432Z,66.97
2023-05-14T23:50:59.921Z,66.77
2023-05-14T23:53:27.560Z,67.13
2023-05-14T23:55:55.090Z,67.41
2023-05-14T23:58:22.860Z,67.48
